sensor_id;sensor_type;location;lat;lon;timestamp;P1;durP1;ratioP1;P2;durP2;ratioP2
21721;SDS011;11023;48.274;7.794;2023-04-07T00:01:28;8.15;;;3.80;;
21721;SDS011;11023;48.274;7.794;2023-04-07T00:03:55;6.25;;;4.15;;
21721;SDS011;11023;48.274;7.794;2023-04-07T00:06:20;9.48;;;3.97;;
21721;SDS011;11023;48.274;7.794;2023-04-07T00:08:46;7.05;;;4.28;;
21721;SDS011;11023;48.274;7.794;2023-04-07T00:11:12;6.60;;;4.70;;
21721;SDS011;11023;48.274;7.794;2023-04-07T00:13:37;7.15;;;4.82;;
21721;SDS011;11023;48.274;7.794;2023-04-07T00:16:03;5.90;;;4.70;;
21721;SDS011;11023;48.274;7.794;2023-04-07T00:18:29;9.18;;;5.88;;
21721;SDS011;11023;48.274;7.794;2023-04-07T00:20:55;10.68;;;6.03;;
21721;SDS011;11023;48.274;7.794;2023-04-07T00:23:20;15.05;;;7.70;;
21721;SDS011;11023;48.274;7.794;2023-04-07T00:25:47;15.10;;;6.88;;
21721;SDS011;11023;48.274;7.794;2023-04-07T00:28:13;8.15;;;5.10;;
21721;SDS011;11023;48.274;7.794;2023-04-07T00:30:39;7.97;;;5.13;;
21721;SDS011;11023;48.274;7.794;2023-04-07T00:33:05;8.25;;;4.90;;
21721;SDS011;11023;48.274;7.794;2023-04-07T00:35:30;7.70;;;4.50;;
21721;SDS011;11023;48.274;7.794;2023-04-07T00:37:56;5.82;;;4.40;;
21721;SDS011;11023;48.274;7.794;2023-04-07T00:40:22;5.57;;;3.75;;
21721;SDS011;11023;48.274;7.794;2023-04-07T00:42:47;7.53;;;4.30;;
21721;SDS011;11023;48.274;7.794;2023-04-07T00:45:13;4.45;;;3.80;;
21721;SDS011;11023;48.274;7.794;2023-04-07T00:47:39;5.85;;;3.58;;
21721;SDS011;11023;48.274;7.794;2023-04-07T00:50:05;5.30;;;3.25;;
21721;SDS011;11023;48.274;7.794;2023-04-07T00:52:32;5.32;;;4.00;;
21721;SDS011;11023;48.274;7.794;2023-04-07T00:55:01;4.97;;;3.42;;
21721;SDS011;11023;48.274;7.794;2023-04-07T00:57:27;4.40;;;3.63;;
21721;SDS011;11023;48.274;7.794;2023-04-07T00:59:53;4.47;;;3.40;;
21721;SDS011;11023;48.274;7.794;2023-04-07T01:02:26;6.40;;;3.40;;
21721;SDS011;11023;48.274;7.794;2023-04-07T01:07:33;4.15;;;3.30;;
21721;SDS011;11023;48.274;7.794;2023-04-07T01:10:24;5.53;;;3.55;;
21721;SDS011;11023;48.274;7.794;2023-04-07T01:15:35;4.70;;;3.25;;
21721;SDS011;11023;48.274;7.794;2023-04-07T01:18:12;4.20;;;3.03;;
21721;SDS011;11023;48.274;7.794;2023-04-07T01:20:42;6.78;;;3.13;;
21721;SDS011;11023;48.274;7.794;2023-04-07T01:23:10;5.65;;;3.42;;
21721;SDS011;11023;48.274;7.794;2023-04-07T01:31:26;4.13;;;3.08;;
21721;SDS011;11023;48.274;7.794;2023-04-07T01:33:54;3.53;;;3.03;;
21721;SDS011;11023;48.274;7.794;2023-04-07T01:36:23;6.72;;;3.30;;
21721;SDS011;11023;48.274;7.794;2023-04-07T01:38:52;6.07;;;3.63;;
21721;SDS011;11023;48.274;7.794;2023-04-07T01:41:19;4.28;;;3.20;;
21721;SDS011;11023;48.274;7.794;2023-04-07T01:43:47;4.47;;;2.92;;
21721;SDS011;11023;48.274;7.794;2023-04-07T01:46:13;3.85;;;3.03;;
21721;SDS011;11023;48.274;7.794;2023-04-07T01:48:39;5.30;;;3.30;;
21721;SDS011;11023;48.274;7.794;2023-04-07T01:51:06;5.40;;;3.30;;
21721;SDS011;11023;48.274;7.794;2023-04-07T01:53:33;5.53;;;3.30;;
21721;SDS011;11023;48.274;7.794;2023-04-07T01:56:01;4.78;;;2.97;;
21721;SDS011;11023;48.274;7.794;2023-04-07T01:58:28;4.70;;;3.33;;
21721;SDS011;11023;48.274;7.794;2023-04-07T02:00:53;6.18;;;3.70;;
21721;SDS011;11023;48.274;7.794;2023-04-07T02:03:22;4.07;;;3.50;;
21721;SDS011;11023;48.274;7.794;2023-04-07T02:05:56;3.63;;;2.65;;
21721;SDS011;11023;48.274;7.794;2023-04-07T02:08:26;6.65;;;3.28;;
21721;SDS011;11023;48.274;7.794;2023-04-07T02:10:53;6.35;;;3.30;;
21721;SDS011;11023;48.274;7.794;2023-04-07T02:13:21;5.18;;;3.58;;
21721;SDS011;11023;48.274;7.794;2023-04-07T02:15:48;6.97;;;4.68;;
21721;SDS011;11023;48.274;7.794;2023-04-07T02:18:15;8.00;;;4.47;;
21721;SDS011;11023;48.274;7.794;2023-04-07T02:20:42;6.10;;;4.20;;
21721;SDS011;11023;48.274;7.794;2023-04-07T02:23:11;5.95;;;3.97;;
21721;SDS011;11023;48.274;7.794;2023-04-07T02:25:36;5.43;;;3.33;;
21721;SDS011;11023;48.274;7.794;2023-04-07T02:28:02;4.13;;;3.47;;
21721;SDS011;11023;48.274;7.794;2023-04-07T02:30:29;3.75;;;2.92;;
21721;SDS011;11023;48.274;7.794;2023-04-07T02:32:54;4.80;;;2.90;;
21721;SDS011;11023;48.274;7.794;2023-04-07T02:35:20;4.03;;;2.85;;
21721;SDS011;11023;48.274;7.794;2023-04-07T02:37:46;4.40;;;3.03;;
21721;SDS011;11023;48.274;7.794;2023-04-07T02:40:12;7.15;;;3.38;;
21721;SDS011;11023;48.274;7.794;2023-04-07T02:42:38;4.07;;;3.20;;
21721;SDS011;11023;48.274;7.794;2023-04-07T02:45:05;5.53;;;3.28;;
21721;SDS011;11023;48.274;7.794;2023-04-07T02:47:32;15.43;;;5.88;;
21721;SDS011;11023;48.274;7.794;2023-04-07T02:49:58;26.73;;;10.10;;
21721;SDS011;11023;48.274;7.794;2023-04-07T02:52:23;15.52;;;6.43;;
21721;SDS011;11023;48.274;7.794;2023-04-07T02:54:49;9.95;;;4.70;;
21721;SDS011;11023;48.274;7.794;2023-04-07T02:57:15;5.55;;;3.42;;
21721;SDS011;11023;48.274;7.794;2023-04-07T02:59:41;5.10;;;3.40;;
21721;SDS011;11023;48.274;7.794;2023-04-07T03:02:07;4.85;;;2.95;;
21721;SDS011;11023;48.274;7.794;2023-04-07T03:04:33;5.22;;;2.97;;
21721;SDS011;11023;48.274;7.794;2023-04-07T03:06:58;4.20;;;3.05;;
21721;SDS011;11023;48.274;7.794;2023-04-07T03:09:24;4.63;;;2.78;;
21721;SDS011;11023;48.274;7.794;2023-04-07T03:11:50;5.05;;;3.55;;
21721;SDS011;11023;48.274;7.794;2023-04-07T03:14:16;3.55;;;2.83;;
21721;SDS011;11023;48.274;7.794;2023-04-07T03:16:41;8.07;;;4.05;;
21721;SDS011;11023;48.274;7.794;2023-04-07T03:19:07;8.70;;;4.38;;
21721;SDS011;11023;48.274;7.794;2023-04-07T03:21:33;6.65;;;3.80;;
21721;SDS011;11023;48.274;7.794;2023-04-07T03:24:00;5.72;;;3.35;;
21721;SDS011;11023;48.274;7.794;2023-04-07T03:26:26;7.70;;;3.20;;
21721;SDS011;11023;48.274;7.794;2023-04-07T03:28:52;5.32;;;2.92;;
21721;SDS011;11023;48.274;7.794;2023-04-07T03:31:17;3.67;;;2.60;;
21721;SDS011;11023;48.274;7.794;2023-04-07T03:33:43;4.85;;;2.70;;
21721;SDS011;11023;48.274;7.794;2023-04-07T03:36:08;4.28;;;2.70;;
21721;SDS011;11023;48.274;7.794;2023-04-07T03:38:35;4.13;;;2.65;;
21721;SDS011;11023;48.274;7.794;2023-04-07T03:41:00;4.72;;;2.75;;
21721;SDS011;11023;48.274;7.794;2023-04-07T03:43:26;3.75;;;2.40;;
21721;SDS011;11023;48.274;7.794;2023-04-07T03:45:52;12.90;;;5.25;;
21721;SDS011;11023;48.274;7.794;2023-04-07T03:48:18;7.93;;;4.00;;
21721;SDS011;11023;48.274;7.794;2023-04-07T03:50:44;10.63;;;4.95;;
21721;SDS011;11023;48.274;7.794;2023-04-07T03:53:10;10.00;;;4.82;;
21721;SDS011;11023;48.274;7.794;2023-04-07T03:55:39;12.15;;;4.93;;
21721;SDS011;11023;48.274;7.794;2023-04-07T03:58:05;7.45;;;4.00;;
21721;SDS011;11023;48.274;7.794;2023-04-07T04:00:30;5.93;;;3.40;;
21721;SDS011;11023;48.274;7.794;2023-04-07T04:02:57;7.35;;;3.88;;
21721;SDS011;11023;48.274;7.794;2023-04-07T04:05:23;8.25;;;3.53;;
21721;SDS011;11023;48.274;7.794;2023-04-07T04:07:49;9.48;;;3.72;;
21721;SDS011;11023;48.274;7.794;2023-04-07T04:10:16;5.40;;;3.53;;
21721;SDS011;11023;48.274;7.794;2023-04-07T04:12:46;6.60;;;3.55;;
21721;SDS011;11023;48.274;7.794;2023-04-07T04:15:12;7.35;;;3.88;;
21721;SDS011;11023;48.274;7.794;2023-04-07T04:17:39;9.63;;;4.07;;
21721;SDS011;11023;48.274;7.794;2023-04-07T04:20:05;9.27;;;4.10;;
21721;SDS011;11023;48.274;7.794;2023-04-07T04:22:32;6.53;;;3.67;;
21721;SDS011;11023;48.274;7.794;2023-04-07T04:24:58;11.98;;;5.05;;
21721;SDS011;11023;48.274;7.794;2023-04-07T04:27:24;12.82;;;5.43;;
21721;SDS011;11023;48.274;7.794;2023-04-07T04:29:49;9.82;;;3.83;;
21721;SDS011;11023;48.274;7.794;2023-04-07T04:32:15;6.95;;;3.50;;
21721;SDS011;11023;48.274;7.794;2023-04-07T04:34:41;4.78;;;3.00;;
21721;SDS011;11023;48.274;7.794;2023-04-07T04:37:07;5.50;;;3.30;;
21721;SDS011;11023;48.274;7.794;2023-04-07T04:39:33;5.45;;;3.30;;
21721;SDS011;11023;48.274;7.794;2023-04-07T04:41:59;4.70;;;3.53;;
21721;SDS011;11023;48.274;7.794;2023-04-07T04:44:26;5.57;;;3.35;;
21721;SDS011;11023;48.274;7.794;2023-04-07T04:46:51;4.60;;;3.50;;
21721;SDS011;11023;48.274;7.794;2023-04-07T04:49:17;5.68;;;3.60;;
21721;SDS011;11023;48.274;7.794;2023-04-07T04:51:43;7.05;;;3.58;;
21721;SDS011;11023;48.274;7.794;2023-04-07T04:54:09;5.40;;;3.40;;
21721;SDS011;11023;48.274;7.794;2023-04-07T04:56:35;5.15;;;3.15;;
21721;SDS011;11023;48.274;7.794;2023-04-07T04:59:01;4.72;;;3.67;;
21721;SDS011;11023;48.274;7.794;2023-04-07T05:01:27;3.95;;;3.10;;
21721;SDS011;11023;48.274;7.794;2023-04-07T05:03:53;4.00;;;3.28;;
21721;SDS011;11023;48.274;7.794;2023-04-07T05:06:19;4.50;;;3.28;;
21721;SDS011;11023;48.274;7.794;2023-04-07T05:08:45;7.35;;;3.50;;
21721;SDS011;11023;48.274;7.794;2023-04-07T05:11:11;7.75;;;3.42;;
21721;SDS011;11023;48.274;7.794;2023-04-07T05:13:37;4.97;;;3.38;;
21721;SDS011;11023;48.274;7.794;2023-04-07T05:16:03;6.03;;;3.20;;
21721;SDS011;11023;48.274;7.794;2023-04-07T05:18:29;6.38;;;3.90;;
21721;SDS011;11023;48.274;7.794;2023-04-07T05:20:55;4.47;;;3.60;;
21721;SDS011;11023;48.274;7.794;2023-04-07T05:23:20;4.78;;;3.53;;
21721;SDS011;11023;48.274;7.794;2023-04-07T05:25:46;6.22;;;3.70;;
21721;SDS011;11023;48.274;7.794;2023-04-07T05:28:11;5.40;;;3.42;;
21721;SDS011;11023;48.274;7.794;2023-04-07T05:30:37;5.55;;;3.05;;
21721;SDS011;11023;48.274;7.794;2023-04-07T05:33:03;5.50;;;3.53;;
21721;SDS011;11023;48.274;7.794;2023-04-07T05:35:28;4.70;;;3.65;;
21721;SDS011;11023;48.274;7.794;2023-04-07T05:37:54;5.63;;;3.40;;
21721;SDS011;11023;48.274;7.794;2023-04-07T05:40:20;4.65;;;3.58;;
21721;SDS011;11023;48.274;7.794;2023-04-07T05:42:45;5.50;;;3.53;;
21721;SDS011;11023;48.274;7.794;2023-04-07T05:45:11;5.57;;;3.80;;
21721;SDS011;11023;48.274;7.794;2023-04-07T05:47:37;4.72;;;3.88;;
21721;SDS011;11023;48.274;7.794;2023-04-07T05:50:02;10.32;;;4.07;;
21721;SDS011;11023;48.274;7.794;2023-04-07T05:52:29;7.43;;;4.80;;
21721;SDS011;11023;48.274;7.794;2023-04-07T05:54:55;5.35;;;4.47;;
21721;SDS011;11023;48.274;7.794;2023-04-07T05:57:20;6.30;;;4.88;;
21721;SDS011;11023;48.274;7.794;2023-04-07T05:59:46;6.35;;;5.13;;
21721;SDS011;11023;48.274;7.794;2023-04-07T06:02:12;8.85;;;6.53;;
21721;SDS011;11023;48.274;7.794;2023-04-07T06:04:38;6.57;;;5.45;;
21721;SDS011;11023;48.274;7.794;2023-04-07T06:07:04;8.13;;;5.55;;
21721;SDS011;11023;48.274;7.794;2023-04-07T06:09:30;10.40;;;5.90;;
21721;SDS011;11023;48.274;7.794;2023-04-07T06:11:55;8.82;;;6.57;;
21721;SDS011;11023;48.274;7.794;2023-04-07T06:14:21;8.65;;;5.95;;
21721;SDS011;11023;48.274;7.794;2023-04-07T06:16:47;6.70;;;5.20;;
21721;SDS011;11023;48.274;7.794;2023-04-07T06:19:13;9.18;;;5.30;;
21721;SDS011;11023;48.274;7.794;2023-04-07T06:21:39;6.10;;;4.60;;
21721;SDS011;11023;48.274;7.794;2023-04-07T06:24:05;9.45;;;5.15;;
21721;SDS011;11023;48.274;7.794;2023-04-07T06:26:31;5.47;;;4.45;;
21721;SDS011;11023;48.274;7.794;2023-04-07T06:28:57;6.07;;;4.50;;
21721;SDS011;11023;48.274;7.794;2023-04-07T06:31:23;8.73;;;5.20;;
21721;SDS011;11023;48.274;7.794;2023-04-07T06:33:50;6.30;;;5.13;;
21721;SDS011;11023;48.274;7.794;2023-04-07T06:36:15;7.50;;;5.50;;
21721;SDS011;11023;48.274;7.794;2023-04-07T06:38:41;6.40;;;4.75;;
21721;SDS011;11023;48.274;7.794;2023-04-07T06:41:07;8.63;;;4.85;;
21721;SDS011;11023;48.274;7.794;2023-04-07T06:43:36;7.45;;;4.97;;
21721;SDS011;11023;48.274;7.794;2023-04-07T06:46:02;8.70;;;5.22;;
21721;SDS011;11023;48.274;7.794;2023-04-07T06:48:28;6.97;;;4.95;;
21721;SDS011;11023;48.274;7.794;2023-04-07T06:50:53;8.60;;;5.07;;
21721;SDS011;11023;48.274;7.794;2023-04-07T06:53:19;7.45;;;4.50;;
21721;SDS011;11023;48.274;7.794;2023-04-07T06:55:45;9.55;;;5.10;;
21721;SDS011;11023;48.274;7.794;2023-04-07T06:58:10;5.50;;;4.45;;
21721;SDS011;11023;48.274;7.794;2023-04-07T07:00:37;7.13;;;5.35;;
21721;SDS011;11023;48.274;7.794;2023-04-07T07:03:03;5.72;;;4.70;;
21721;SDS011;11023;48.274;7.794;2023-04-07T07:05:28;6.20;;;4.60;;
21721;SDS011;11023;48.274;7.794;2023-04-07T07:07:54;8.75;;;5.18;;
21721;SDS011;11023;48.274;7.794;2023-04-07T07:10:20;6.65;;;5.40;;
21721;SDS011;11023;48.274;7.794;2023-04-07T07:12:46;5.70;;;4.45;;
21721;SDS011;11023;48.274;7.794;2023-04-07T07:15:13;6.97;;;5.13;;
21721;SDS011;11023;48.274;7.794;2023-04-07T07:17:38;6.70;;;5.28;;
21721;SDS011;11023;48.274;7.794;2023-04-07T07:20:04;10.52;;;5.38;;
21721;SDS011;11023;48.274;7.794;2023-04-07T07:22:30;7.28;;;5.68;;
21721;SDS011;11023;48.274;7.794;2023-04-07T07:24:56;8.75;;;5.30;;
21721;SDS011;11023;48.274;7.794;2023-04-07T07:27:21;6.72;;;5.10;;
21721;SDS011;11023;48.274;7.794;2023-04-07T07:29:47;7.47;;;5.30;;
21721;SDS011;11023;48.274;7.794;2023-04-07T07:32:13;7.93;;;5.45;;
21721;SDS011;11023;48.274;7.794;2023-04-07T07:34:38;6.55;;;4.80;;
21721;SDS011;11023;48.274;7.794;2023-04-07T07:37:04;7.63;;;5.00;;
21721;SDS011;11023;48.274;7.794;2023-04-07T07:39:30;6.28;;;5.03;;
21721;SDS011;11023;48.274;7.794;2023-04-07T07:41:55;7.25;;;5.13;;
21721;SDS011;11023;48.274;7.794;2023-04-07T07:44:21;6.65;;;5.07;;
21721;SDS011;11023;48.274;7.794;2023-04-07T07:46:48;6.97;;;5.30;;
21721;SDS011;11023;48.274;7.794;2023-04-07T07:49:14;7.05;;;5.10;;
21721;SDS011;11023;48.274;7.794;2023-04-07T07:51:40;7.40;;;5.22;;
21721;SDS011;11023;48.274;7.794;2023-04-07T07:54:05;9.50;;;5.80;;
21721;SDS011;11023;48.274;7.794;2023-04-07T07:56:31;6.05;;;4.78;;
21721;SDS011;11023;48.274;7.794;2023-04-07T07:58:57;6.72;;;5.13;;
21721;SDS011;11023;48.274;7.794;2023-04-07T08:01:23;7.03;;;5.25;;
21721;SDS011;11023;48.274;7.794;2023-04-07T08:03:48;7.03;;;5.18;;
21721;SDS011;11023;48.274;7.794;2023-04-07T08:06:14;6.78;;;5.18;;
21721;SDS011;11023;48.274;7.794;2023-04-07T08:08:40;9.07;;;4.93;;
21721;SDS011;11023;48.274;7.794;2023-04-07T08:11:06;7.53;;;5.13;;
21721;SDS011;11023;48.274;7.794;2023-04-07T08:13:32;6.15;;;4.70;;
21721;SDS011;11023;48.274;7.794;2023-04-07T08:15:57;6.03;;;5.13;;
21721;SDS011;11023;48.274;7.794;2023-04-07T08:18:23;5.80;;;5.03;;
21721;SDS011;11023;48.274;7.794;2023-04-07T08:20:50;7.00;;;5.05;;
21721;SDS011;11023;48.274;7.794;2023-04-07T08:23:16;6.03;;;4.60;;
21721;SDS011;11023;48.274;7.794;2023-04-07T08:25:42;9.75;;;5.07;;
21721;SDS011;11023;48.274;7.794;2023-04-07T08:28:08;6.53;;;4.97;;
21721;SDS011;11023;48.274;7.794;2023-04-07T08:30:33;5.70;;;4.80;;
21721;SDS011;11023;48.274;7.794;2023-04-07T08:32:59;7.20;;;4.93;;
21721;SDS011;11023;48.274;7.794;2023-04-07T08:35:25;6.55;;;5.00;;
21721;SDS011;11023;48.274;7.794;2023-04-07T08:37:50;7.72;;;5.50;;
21721;SDS011;11023;48.274;7.794;2023-04-07T08:40:16;6.28;;;4.80;;
21721;SDS011;11023;48.274;7.794;2023-04-07T08:42:45;7.00;;;5.13;;
21721;SDS011;11023;48.274;7.794;2023-04-07T08:45:13;6.35;;;4.90;;
21721;SDS011;11023;48.274;7.794;2023-04-07T08:47:41;6.20;;;5.20;;
21721;SDS011;11023;48.274;7.794;2023-04-07T08:50:08;5.85;;;4.50;;
21721;SDS011;11023;48.274;7.794;2023-04-07T08:52:48;7.95;;;5.05;;
21721;SDS011;11023;48.274;7.794;2023-04-07T08:55:17;6.55;;;5.10;;
21721;SDS011;11023;48.274;7.794;2023-04-07T08:57:45;6.68;;;4.85;;
21721;SDS011;11023;48.274;7.794;2023-04-07T09:00:11;7.07;;;4.97;;
21721;SDS011;11023;48.274;7.794;2023-04-07T09:02:41;10.05;;;5.40;;
21721;SDS011;11023;48.274;7.794;2023-04-07T09:05:12;6.05;;;4.93;;
21721;SDS011;11023;48.274;7.794;2023-04-07T09:07:41;5.88;;;4.78;;
21721;SDS011;11023;48.274;7.794;2023-04-07T09:10:07;7.05;;;4.90;;
21721;SDS011;11023;48.274;7.794;2023-04-07T09:12:33;6.72;;;4.85;;
21721;SDS011;11023;48.274;7.794;2023-04-07T09:14:59;8.52;;;5.60;;
21721;SDS011;11023;48.274;7.794;2023-04-07T09:17:25;7.70;;;5.25;;
21721;SDS011;11023;48.274;7.794;2023-04-07T09:19:52;7.63;;;5.15;;
21721;SDS011;11023;48.274;7.794;2023-04-07T09:25:15;6.90;;;4.72;;
21721;SDS011;11023;48.274;7.794;2023-04-07T09:27:56;7.68;;;5.22;;
21721;SDS011;11023;48.274;7.794;2023-04-07T09:30:23;7.18;;;4.70;;
21721;SDS011;11023;48.274;7.794;2023-04-07T09:32:49;6.13;;;4.70;;
21721;SDS011;11023;48.274;7.794;2023-04-07T09:35:15;7.07;;;4.32;;
21721;SDS011;11023;48.274;7.794;2023-04-07T09:37:41;6.38;;;3.90;;
21721;SDS011;11023;48.274;7.794;2023-04-07T09:40:07;5.97;;;4.45;;
21721;SDS011;11023;48.274;7.794;2023-04-07T09:42:33;5.97;;;4.43;;
21721;SDS011;11023;48.274;7.794;2023-04-07T09:45:02;5.18;;;4.07;;
21721;SDS011;11023;48.274;7.794;2023-04-07T09:47:28;7.57;;;4.82;;
21721;SDS011;11023;48.274;7.794;2023-04-07T09:49:56;5.95;;;4.75;;
21721;SDS011;11023;48.274;7.794;2023-04-07T09:55:21;5.68;;;4.47;;
21721;SDS011;11023;48.274;7.794;2023-04-07T09:57:48;8.77;;;4.47;;
21721;SDS011;11023;48.274;7.794;2023-04-07T10:00:15;5.38;;;4.80;;
21721;SDS011;11023;48.274;7.794;2023-04-07T10:02:41;6.97;;;5.25;;
21721;SDS011;11023;48.274;7.794;2023-04-07T10:05:08;6.35;;;4.93;;
21721;SDS011;11023;48.274;7.794;2023-04-07T10:07:34;6.13;;;4.65;;
21721;SDS011;11023;48.274;7.794;2023-04-07T10:10:02;5.82;;;4.75;;
21721;SDS011;11023;48.274;7.794;2023-04-07T10:12:28;5.35;;;4.63;;
21721;SDS011;11023;48.274;7.794;2023-04-07T10:14:56;7.43;;;5.00;;
21721;SDS011;11023;48.274;7.794;2023-04-07T10:17:24;5.50;;;4.38;;
21721;SDS011;11023;48.274;7.794;2023-04-07T10:19:50;6.95;;;5.28;;
21721;SDS011;11023;48.274;7.794;2023-04-07T10:22:16;7.13;;;4.97;;
21721;SDS011;11023;48.274;7.794;2023-04-07T10:27:42;5.18;;;4.60;;
21721;SDS011;11023;48.274;7.794;2023-04-07T10:30:22;8.43;;;4.70;;
21721;SDS011;11023;48.274;7.794;2023-04-07T10:32:50;8.57;;;4.85;;
21721;SDS011;11023;48.274;7.794;2023-04-07T10:35:17;7.95;;;5.15;;
21721;SDS011;11023;48.274;7.794;2023-04-07T10:40:35;5.68;;;4.22;;
21721;SDS011;11023;48.274;7.794;2023-04-07T10:43:02;6.22;;;4.40;;
21721;SDS011;11023;48.274;7.794;2023-04-07T10:48:13;6.53;;;4.40;;
21721;SDS011;11023;48.274;7.794;2023-04-07T10:50:40;6.13;;;4.25;;
21721;SDS011;11023;48.274;7.794;2023-04-07T10:53:10;6.13;;;4.40;;
21721;SDS011;11023;48.274;7.794;2023-04-07T10:58:20;6.18;;;5.30;;
21721;SDS011;11023;48.274;7.794;2023-04-07T11:03:31;10.20;;;7.90;;
21721;SDS011;11023;48.274;7.794;2023-04-07T11:06:07;23.65;;;16.10;;
21721;SDS011;11023;48.274;7.794;2023-04-07T11:08:34;26.40;;;20.08;;
21721;SDS011;11023;48.274;7.794;2023-04-07T11:11:01;22.92;;;17.80;;
21721;SDS011;11023;48.274;7.794;2023-04-07T11:13:38;18.98;;;16.67;;
21721;SDS011;11023;48.274;7.794;2023-04-07T11:16:08;9.23;;;7.13;;
21721;SDS011;11023;48.274;7.794;2023-04-07T11:18:35;6.53;;;5.50;;
21721;SDS011;11023;48.274;7.794;2023-04-07T11:21:01;11.70;;;8.35;;
21721;SDS011;11023;48.274;7.794;2023-04-07T11:23:29;6.70;;;5.20;;
21721;SDS011;11023;48.274;7.794;2023-04-07T11:26:10;5.85;;;3.90;;
21721;SDS011;11023;48.274;7.794;2023-04-07T11:28:44;6.63;;;4.50;;
21721;SDS011;11023;48.274;7.794;2023-04-07T11:31:10;4.53;;;3.83;;
21721;SDS011;11023;48.274;7.794;2023-04-07T11:33:36;4.43;;;3.35;;
21721;SDS011;11023;48.274;7.794;2023-04-07T11:36:04;5.72;;;3.88;;
21721;SDS011;11023;48.274;7.794;2023-04-07T11:38:35;3.50;;;3.20;;
21721;SDS011;11023;48.274;7.794;2023-04-07T11:41:09;4.07;;;3.53;;
21721;SDS011;11023;48.274;7.794;2023-04-07T11:43:36;5.72;;;4.55;;
21721;SDS011;11023;48.274;7.794;2023-04-07T11:46:03;13.20;;;8.75;;
21721;SDS011;11023;48.274;7.794;2023-04-07T11:48:39;9.80;;;7.72;;
21721;SDS011;11023;48.274;7.794;2023-04-07T11:51:14;9.20;;;5.93;;
21721;SDS011;11023;48.274;7.794;2023-04-07T11:53:43;13.30;;;10.32;;
21721;SDS011;11023;48.274;7.794;2023-04-07T11:56:12;11.68;;;8.20;;
21721;SDS011;11023;48.274;7.794;2023-04-07T11:59:00;3.80;;;3.50;;
21721;SDS011;11023;48.274;7.794;2023-04-07T12:01:37;4.40;;;3.90;;
21721;SDS011;11023;48.274;7.794;2023-04-07T12:04:05;5.30;;;4.03;;
21721;SDS011;11023;48.274;7.794;2023-04-07T12:06:37;5.30;;;3.97;;
21721;SDS011;11023;48.274;7.794;2023-04-07T12:09:05;6.45;;;5.22;;
21721;SDS011;11023;48.274;7.794;2023-04-07T12:11:31;4.57;;;4.18;;
21721;SDS011;11023;48.274;7.794;2023-04-07T12:13:58;4.82;;;4.38;;
21721;SDS011;11023;48.274;7.794;2023-04-07T12:16:24;7.50;;;5.88;;
21721;SDS011;11023;48.274;7.794;2023-04-07T12:18:50;5.88;;;5.28;;
21721;SDS011;11023;48.274;7.794;2023-04-07T12:21:16;5.13;;;4.63;;
21721;SDS011;11023;48.274;7.794;2023-04-07T12:23:42;4.88;;;4.20;;
21721;SDS011;11023;48.274;7.794;2023-04-07T12:26:08;13.38;;;8.02;;
21721;SDS011;11023;48.274;7.794;2023-04-07T12:28:35;12.75;;;8.90;;
21721;SDS011;11023;48.274;7.794;2023-04-07T12:31:02;4.30;;;3.90;;
21721;SDS011;11023;48.274;7.794;2023-04-07T12:33:28;3.78;;;3.47;;
21721;SDS011;11023;48.274;7.794;2023-04-07T12:35:54;3.88;;;3.45;;
21721;SDS011;11023;48.274;7.794;2023-04-07T12:38:21;4.30;;;3.90;;
21721;SDS011;11023;48.274;7.794;2023-04-07T12:40:46;4.45;;;3.75;;
21721;SDS011;11023;48.274;7.794;2023-04-07T12:43:12;4.32;;;3.92;;
21721;SDS011;11023;48.274;7.794;2023-04-07T12:45:38;4.22;;;3.65;;
21721;SDS011;11023;48.274;7.794;2023-04-07T12:48:03;4.07;;;3.67;;
21721;SDS011;11023;48.274;7.794;2023-04-07T12:50:30;3.80;;;3.40;;
21721;SDS011;11023;48.274;7.794;2023-04-07T12:52:56;3.40;;;3.10;;
21721;SDS011;11023;48.274;7.794;2023-04-07T12:55:23;3.67;;;3.25;;
21721;SDS011;11023;48.274;7.794;2023-04-07T12:57:49;3.92;;;3.53;;
21721;SDS011;11023;48.274;7.794;2023-04-07T13:00:15;4.35;;;3.40;;
21721;SDS011;11023;48.274;7.794;2023-04-07T13:02:41;4.03;;;3.25;;
21721;SDS011;11023;48.274;7.794;2023-04-07T13:05:07;3.40;;;2.97;;
21721;SDS011;11023;48.274;7.794;2023-04-07T13:07:33;4.75;;;3.20;;
21721;SDS011;11023;48.274;7.794;2023-04-07T13:10:00;2.78;;;2.58;;
21721;SDS011;11023;48.274;7.794;2023-04-07T13:12:26;3.45;;;3.15;;
21721;SDS011;11023;48.274;7.794;2023-04-07T13:14:52;4.20;;;2.90;;
21721;SDS011;11023;48.274;7.794;2023-04-07T13:17:18;2.92;;;2.50;;
21721;SDS011;11023;48.274;7.794;2023-04-07T13:20:05;4.15;;;2.83;;
21721;SDS011;11023;48.274;7.794;2023-04-07T13:22:37;3.42;;;2.70;;
21721;SDS011;11023;48.274;7.794;2023-04-07T13:25:03;3.17;;;2.70;;
21721;SDS011;11023;48.274;7.794;2023-04-07T13:27:29;2.80;;;2.60;;
21721;SDS011;11023;48.274;7.794;2023-04-07T13:29:54;3.78;;;2.78;;
21721;SDS011;11023;48.274;7.794;2023-04-07T13:32:20;3.03;;;2.65;;
21721;SDS011;11023;48.274;7.794;2023-04-07T13:34:47;5.15;;;3.42;;
21721;SDS011;11023;48.274;7.794;2023-04-07T13:37:13;3.80;;;3.17;;
21721;SDS011;11023;48.274;7.794;2023-04-07T13:39:40;4.22;;;3.38;;
21721;SDS011;11023;48.274;7.794;2023-04-07T13:42:06;4.72;;;3.28;;
21721;SDS011;11023;48.274;7.794;2023-04-07T13:44:33;3.65;;;3.25;;
21721;SDS011;11023;48.274;7.794;2023-04-07T13:47:01;3.20;;;2.90;;
21721;SDS011;11023;48.274;7.794;2023-04-07T13:49:27;4.45;;;3.30;;
21721;SDS011;11023;48.274;7.794;2023-04-07T13:51:53;3.97;;;2.80;;
21721;SDS011;11023;48.274;7.794;2023-04-07T13:54:19;5.72;;;3.40;;
21721;SDS011;11023;48.274;7.794;2023-04-07T13:56:45;3.53;;;2.78;;
21721;SDS011;11023;48.274;7.794;2023-04-07T13:59:14;3.63;;;3.05;;
21721;SDS011;11023;48.274;7.794;2023-04-07T14:01:40;4.10;;;2.83;;
21721;SDS011;11023;48.274;7.794;2023-04-07T14:04:06;4.22;;;3.20;;
21721;SDS011;11023;48.274;7.794;2023-04-07T14:06:32;4.55;;;3.00;;
21721;SDS011;11023;48.274;7.794;2023-04-07T14:09:05;3.40;;;3.03;;
21721;SDS011;11023;48.274;7.794;2023-04-07T14:11:32;2.75;;;2.47;;
21721;SDS011;11023;48.274;7.794;2023-04-07T14:13:58;3.67;;;2.75;;
21721;SDS011;11023;48.274;7.794;2023-04-07T14:16:24;4.32;;;3.25;;
21721;SDS011;11023;48.274;7.794;2023-04-07T14:18:50;3.83;;;3.10;;
21721;SDS011;11023;48.274;7.794;2023-04-07T14:21:16;3.58;;;2.78;;
21721;SDS011;11023;48.274;7.794;2023-04-07T14:23:41;2.90;;;2.70;;
21721;SDS011;11023;48.274;7.794;2023-04-07T14:26:10;2.33;;;2.13;;
21721;SDS011;11023;48.274;7.794;2023-04-07T14:28:36;2.20;;;2.00;;
21721;SDS011;11023;48.274;7.794;2023-04-07T14:31:02;2.88;;;2.60;;
21721;SDS011;11023;48.274;7.794;2023-04-07T14:33:28;2.78;;;2.55;;
21721;SDS011;11023;48.274;7.794;2023-04-07T14:35:53;2.90;;;2.40;;
21721;SDS011;11023;48.274;7.794;2023-04-07T14:38:19;2.45;;;2.20;;
21721;SDS011;11023;48.274;7.794;2023-04-07T14:40:48;3.40;;;2.28;;
21721;SDS011;11023;48.274;7.794;2023-04-07T14:43:14;2.55;;;2.30;;
21721;SDS011;11023;48.274;7.794;2023-04-07T14:45:39;2.72;;;2.28;;
21721;SDS011;11023;48.274;7.794;2023-04-07T14:48:05;6.57;;;5.95;;
21721;SDS011;11023;48.274;7.794;2023-04-07T14:50:31;3.38;;;3.08;;
21721;SDS011;11023;48.274;7.794;2023-04-07T14:52:57;9.93;;;8.95;;
21721;SDS011;11023;48.274;7.794;2023-04-07T14:55:23;3.50;;;3.20;;
21721;SDS011;11023;48.274;7.794;2023-04-07T14:57:49;2.70;;;2.50;;
21721;SDS011;11023;48.274;7.794;2023-04-07T15:00:15;2.72;;;2.35;;
21721;SDS011;11023;48.274;7.794;2023-04-07T15:02:41;2.67;;;2.25;;
21721;SDS011;11023;48.274;7.794;2023-04-07T15:05:08;3.03;;;1.98;;
21721;SDS011;11023;48.274;7.794;2023-04-07T15:07:34;2.88;;;2.20;;
21721;SDS011;11023;48.274;7.794;2023-04-07T15:10:00;4.78;;;2.47;;
21721;SDS011;11023;48.274;7.794;2023-04-07T15:12:26;2.40;;;2.20;;
21721;SDS011;11023;48.274;7.794;2023-04-07T15:14:53;2.60;;;2.33;;